Time;durP1;ratioP1;P1;durP2;ratioP2;P2;SDS_P1;SDS_P2;PMS_P1;PMS_P2;Temp;Humidity;BMP_temperature;BMP_pressure;BME280_temperature;BME280_humidity;BME280_pressure;Samples;Min_cycle;Max_cycle;Signal;HPM_P1;HPM_P2
2021/10/29 00:02:09;;;;;;;58.05;24.23;;;;;;;;;;4941735;28;20877;-63
2021/10/29 00:04:34;;;;;;;57.00;21.20;;;;;;;;;;4944929;29;20132;-64
2021/10/29 00:06:59;;;;;;;76.93;26.83;;;;;;;;;;4943533;28;20457;-64
2021/10/29 00:09:25;;;;;;;74.00;27.00;;;;;;;;;;4938529;28;20496;-63
2021/10/29 00:11:50;;;;;;;74.97;25.55;;;;;;;;;;4947328;28;20039;-63
2021/10/29 00:14:15;;;;;;;76.25;26.73;;;;;;;;;;4945189;28;20066;-65
2021/10/29 00:16:40;;;;;;;70.07;24.88;;;;;;;;;;4944159;28;20126;-63
2021/10/29 00:19:05;;;;;;;67.40;25.33;;;;;;;;;;4940565;28;20033;-63
2021/10/29 00:21:31;;;;;;;61.50;23.60;;;;;;;;;;4945132;28;20129;-63
2021/10/29 00:23:56;;;;;;;59.30;23.73;;;;;;;;;;4940571;28;20031;-63
2021/10/29 00:26:22;;;;;;;66.32;24.40;;;;;;;;;;4945934;28;20035;-62
2021/10/29 00:28:47;;;;;;;63.47;22.65;;;;;;;;;;4946889;28;20050;-62
2021/10/29 00:31:12;;;;;;;71.32;24.20;;;;;;;;;;4949575;28;20047;-62
2021/10/29 00:33:38;;;;;;;75.00;26.27;;;;;;;;;;4949733;28;20027;-62
2021/10/29 00:36:03;;;;;;;70.07;26.02;;;;;;;;;;4949682;28;20094;-62
2021/10/29 00:38:28;;;;;;;64.93;25.30;;;;;;;;;;4940880;28;20032;-62
2021/10/29 00:40:54;;;;;;;64.13;24.88;;;;;;;;;;4941599;28;20039;-62
2021/10/29 00:43:19;;;;;;;68.38;25.35;;;;;;;;;;4939994;28;20019;-62
2021/10/29 00:45:44;;;;;;;70.30;25.95;;;;;;;;;;4949215;28;20081;-62
2021/10/29 00:48:12;;;;;;;80.30;28.10;;;;;;;;;;4960156;28;20041;-63
2021/10/29 00:50:38;;;;;;;98.03;28.85;;;;;;;;;;4949197;28;20043;-62
2021/10/29 00:53:03;;;;;;;81.50;25.67;;;;;;;;;;4940140;29;20081;-62
2021/10/29 00:55:28;;;;;;;76.82;26.38;;;;;;;;;;4948505;28;20146;-62
2021/10/29 00:57:53;;;;;;;89.15;26.40;;;;;;;;;;4946347;28;20444;-63
2021/10/29 01:00:19;;;;;;;99.32;32.38;;;;;;;;;;4949659;28;20520;-63
2021/10/29 01:02:44;;;;;;;245.10;29.50;;;;;;;;;;4940432;28;20038;-63
2021/10/29 01:05:09;;;;;;;260.65;29.63;;;;;;;;;;4939087;28;20078;-63
2021/10/29 01:07:35;;;;;;;242.23;31.85;;;;;;;;;;4940693;28;20023;-63
2021/10/29 01:10:00;;;;;;;182.88;28.17;;;;;;;;;;4943929;28;20089;-63
2021/10/29 01:12:25;;;;;;;198.95;27.98;;;;;;;;;;4949230;28;20031;-63
2021/10/29 01:14:54;;;;;;;256.15;28.80;;;;;;;;;;4942677;29;20493;-63
2021/10/29 01:17:19;;;;;;;337.80;28.15;;;;;;;;;;4945260;28;20039;-63
2021/10/29 01:19:44;;;;;;;474.88;30.05;;;;;;;;;;4936723;28;20047;-63
2021/10/29 01:22:10;;;;;;;168.25;26.65;;;;;;;;;;4955125;28;20049;-62
2021/10/29 01:24:35;;;;;;;146.15;24.77;;;;;;;;;;4944953;28;20027;-63
2021/10/29 01:27:07;;;;;;;270.70;25.65;;;;;;;;;;4941293;28;20042;-62
2021/10/29 01:29:32;;;;;;;104.00;23.48;;;;;;;;;;4939622;28;20036;-63
2021/10/29 01:31:58;;;;;;;67.70;22.75;;;;;;;;;;4940671;28;20062;-62
2021/10/29 01:34:23;;;;;;;88.57;22.95;;;;;;;;;;4942381;29;20023;-62
2021/10/29 01:36:49;;;;;;;272.90;26.52;;;;;;;;;;4951437;28;20498;-62
2021/10/29 01:39:17;;;;;;;69.22;21.80;;;;;;;;;;4950493;28;20023;-62
2021/10/29 01:41:43;;;;;;;109.45;23.35;;;;;;;;;;4945202;28;20074;-62
2021/10/29 01:44:09;;;;;;;75.53;20.95;;;;;;;;;;4952304;28;20138;-63
2021/10/29 01:46:34;;;;;;;109.50;21.67;;;;;;;;;;4948244;28;20495;-62
2021/10/29 01:48:59;;;;;;;88.57;22.63;;;;;;;;;;4948659;28;20042;-63
2021/10/29 01:51:25;;;;;;;93.13;22.20;;;;;;;;;;4948900;28;20054;-62
2021/10/29 01:53:50;;;;;;;79.50;23.13;;;;;;;;;;4949472;28;20031;-62
2021/10/29 01:56:16;;;;;;;134.45;24.40;;;;;;;;;;4948973;28;20547;-62
2021/10/29 01:58:41;;;;;;;64.90;22.27;;;;;;;;;;4948077;28;20023;-62
2021/10/29 02:01:06;;;;;;;80.25;22.02;;;;;;;;;;4941077;28;20058;-63
2021/10/29 02:03:33;;;;;;;102.35;20.55;;;;;;;;;;4939461;29;20118;-63
2021/10/29 02:05:58;;;;;;;121.50;20.83;;;;;;;;;;4938925;28;20078;-62
2021/10/29 02:08:25;;;;;;;88.35;20.52;;;;;;;;;;4941372;28;20106;-62
2021/10/29 02:10:50;;;;;;;106.13;20.75;;;;;;;;;;4946424;28;20051;-62
2021/10/29 02:13:16;;;;;;;107.82;21.55;;;;;;;;;;4945944;28;20073;-62
2021/10/29 02:15:41;;;;;;;85.30;19.60;;;;;;;;;;4943650;28;20051;-62
2021/10/29 02:18:06;;;;;;;110.38;21.00;;;;;;;;;;4944423;28;20042;-63
2021/10/29 02:20:32;;;;;;;129.18;18.63;;;;;;;;;;4938330;28;20086;-63
2021/10/29 02:22:57;;;;;;;112.72;20.63;;;;;;;;;;4952869;28;20039;-65
2021/10/29 02:25:22;;;;;;;402.52;26.10;;;;;;;;;;4946788;28;20046;-64
2021/10/29 02:27:48;;;;;;;177.98;20.23;;;;;;;;;;4947334;28;20114;-63
2021/10/29 02:30:13;;;;;;;85.32;18.55;;;;;;;;;;4940827;28;20027;-64
2021/10/29 02:32:38;;;;;;;87.55;18.38;;;;;;;;;;4946992;28;20031;-67
2021/10/29 02:35:04;;;;;;;135.02;20.77;;;;;;;;;;4942355;28;20067;-63
2021/10/29 02:37:30;;;;;;;70.40;20.08;;;;;;;;;;4946137;28;20026;-63
2021/10/29 02:39:56;;;;;;;141.07;19.13;;;;;;;;;;4936183;29;20032;-64
2021/10/29 02:42:21;;;;;;;160.65;18.95;;;;;;;;;;4935338;29;20043;-63
2021/10/29 02:44:46;;;;;;;46.80;17.60;;;;;;;;;;4933795;29;20732;-64
2021/10/29 02:47:12;;;;;;;102.20;18.48;;;;;;;;;;4938116;28;20036;-63
2021/10/29 02:49:37;;;;;;;46.60;17.58;;;;;;;;;;4936631;29;20593;-63
2021/10/29 02:52:03;;;;;;;46.95;19.63;;;;;;;;;;4944275;28;20315;-63
2021/10/29 02:54:28;;;;;;;53.83;18.65;;;;;;;;;;4946770;28;20175;-64
2021/10/29 02:56:53;;;;;;;47.53;17.73;;;;;;;;;;4939952;28;20253;-62
2021/10/29 02:59:19;;;;;;;46.00;17.15;;;;;;;;;;4942488;28;20024;-63
2021/10/29 03:01:44;;;;;;;38.03;17.08;;;;;;;;;;4941853;28;20039;-63
2021/10/29 03:04:09;;;;;;;36.50;17.80;;;;;;;;;;4939915;28;20047;-63
2021/10/29 03:06:35;;;;;;;31.92;17.10;;;;;;;;;;4946103;28;20074;-62
2021/10/29 03:09:00;;;;;;;169.43;19.65;;;;;;;;;;4946212;28;20062;-63
2021/10/29 03:11:25;;;;;;;324.70;21.58;;;;;;;;;;4946000;28;20042;-63
2021/10/29 03:13:51;;;;;;;61.53;19.05;;;;;;;;;;4946520;28;20619;-62
2021/10/29 03:16:16;;;;;;;48.83;18.63;;;;;;;;;;4945633;28;20039;-62
2021/10/29 03:18:41;;;;;;;96.68;19.40;;;;;;;;;;4943492;29;20031;-62
2021/10/29 03:21:06;;;;;;;437.98;23.83;;;;;;;;;;4946317;28;20038;-62
2021/10/29 03:23:31;;;;;;;388.15;22.17;;;;;;;;;;4939116;28;20023;-63
2021/10/29 03:25:57;;;;;;;121.28;18.27;;;;;;;;;;4938541;28;20048;-62
2021/10/29 03:28:22;;;;;;;220.02;19.95;;;;;;;;;;4938002;28;20447;-62
2021/10/29 03:30:47;;;;;;;164.77;18.60;;;;;;;;;;4944862;28;20047;-64
2021/10/29 03:33:13;;;;;;;345.88;21.65;;;;;;;;;;4954021;28;20090;-64
2021/10/29 03:35:38;;;;;;;263.20;19.65;;;;;;;;;;4939790;28;20549;-63
2021/10/29 03:45:50;;;;;;;131.82;17.65;;;;;;;;;;4945360;28;20074;-63
2021/10/29 03:48:18;;;;;;;102.05;18.05;;;;;;;;;;4941137;28;20039;-63
2021/10/29 03:50:50;;;;;;;74.53;17.33;;;;;;;;;;4945201;28;20490;-63
2021/10/29 03:55:53;;;;;;;53.22;16.75;;;;;;;;;;4937985;28;20047;-63
2021/10/29 03:58:18;;;;;;;122.18;18.77;;;;;;;;;;4946713;28;20778;-63
2021/10/29 04:00:43;;;;;;;41.90;18.50;;;;;;;;;;4946711;28;20043;-64
2021/10/29 04:03:08;;;;;;;49.17;17.15;;;;;;;;;;4945213;28;20042;-63
2021/10/29 04:05:34;;;;;;;57.95;17.83;;;;;;;;;;4939169;28;20094;-63
2021/10/29 04:07:59;;;;;;;130.30;19.25;;;;;;;;;;4945474;28;20090;-63
2021/10/29 04:10:26;;;;;;;89.55;18.30;;;;;;;;;;4950780;28;20093;-63
2021/10/29 04:12:54;;;;;;;81.78;16.10;;;;;;;;;;4947995;29;20031;-63
2021/10/29 04:15:20;;;;;;;105.20;18.60;;;;;;;;;;4939084;28;20418;-63
2021/10/29 04:17:45;;;;;;;119.00;19.00;;;;;;;;;;4944050;28;20048;-64
2021/10/29 04:20:10;;;;;;;54.30;16.75;;;;;;;;;;4948959;28;20031;-63
2021/10/29 04:22:36;;;;;;;198.07;21.50;;;;;;;;;;4944853;28;20031;-63
2021/10/29 04:25:01;;;;;;;67.70;17.92;;;;;;;;;;4948599;28;20027;-64
2021/10/29 04:27:31;;;;;;;153.35;19.25;;;;;;;;;;4946171;28;20453;-63
2021/10/29 04:29:57;;;;;;;119.53;20.45;;;;;;;;;;4950436;28;20207;-63
2021/10/29 04:32:22;;;;;;;119.90;20.75;;;;;;;;;;4948736;28;20536;-63
2021/10/29 04:34:47;;;;;;;208.32;22.80;;;;;;;;;;4939427;28;20059;-62
2021/10/29 04:37:12;;;;;;;175.15;22.92;;;;;;;;;;4949601;28;20130;-64
2021/10/29 04:39:38;;;;;;;65.20;20.80;;;;;;;;;;4950600;28;20090;-64
2021/10/29 04:42:03;;;;;;;54.63;23.90;;;;;;;;;;4948369;28;20051;-63
2021/10/29 04:44:28;;;;;;;53.22;24.48;;;;;;;;;;4949655;28;20059;-64
2021/10/29 04:46:53;;;;;;;48.10;22.98;;;;;;;;;;4948925;28;20621;-64
2021/10/29 04:49:19;;;;;;;48.47;22.92;;;;;;;;;;4941642;28;20070;-62
2021/10/29 04:51:44;;;;;;;42.55;21.17;;;;;;;;;;4940525;28;20039;-62
2021/10/29 04:54:09;;;;;;;38.78;20.05;;;;;;;;;;4939797;28;20046;-63
2021/10/29 04:56:34;;;;;;;39.47;20.33;;;;;;;;;;4948365;28;20492;-63
2021/10/29 04:59:00;;;;;;;38.55;19.33;;;;;;;;;;4950249;28;20129;-63
2021/10/29 05:01:25;;;;;;;37.75;19.35;;;;;;;;;;4941614;28;20393;-63
2021/10/29 05:03:50;;;;;;;44.95;20.40;;;;;;;;;;4945101;28;20046;-63
2021/10/29 05:06:15;;;;;;;43.70;19.30;;;;;;;;;;4947156;28;20043;-63
2021/10/29 05:08:40;;;;;;;36.33;19.58;;;;;;;;;;4938084;29;20034;-63
2021/10/29 05:11:06;;;;;;;37.17;19.27;;;;;;;;;;4960879;28;20059;-62
2021/10/29 05:13:31;;;;;;;30.38;18.20;;;;;;;;;;4949178;28;20027;-62
2021/10/29 05:15:56;;;;;;;34.22;18.90;;;;;;;;;;4942821;28;20062;-63
2021/10/29 05:18:21;;;;;;;31.05;17.77;;;;;;;;;;4944631;28;20367;-63
2021/10/29 05:20:47;;;;;;;33.42;18.73;;;;;;;;;;4933905;28;20078;-63
2021/10/29 05:23:12;;;;;;;40.65;17.30;;;;;;;;;;4945565;28;20039;-62
2021/10/29 05:25:37;;;;;;;35.33;18.52;;;;;;;;;;4946634;28;20062;-63
2021/10/29 05:28:03;;;;;;;42.97;22.20;;;;;;;;;;4949411;29;20027;-63
2021/10/29 05:30:28;;;;;;;37.25;19.48;;;;;;;;;;4946908;28;20043;-62
2021/10/29 05:32:53;;;;;;;43.88;19.40;;;;;;;;;;4938779;28;20074;-63
2021/10/29 05:35:19;;;;;;;32.88;17.55;;;;;;;;;;4946886;28;20035;-63
2021/10/29 05:37:44;;;;;;;29.63;17.58;;;;;;;;;;4943622;28;20393;-63
2021/10/29 05:40:10;;;;;;;31.42;17.38;;;;;;;;;;4936672;28;20078;-62
2021/10/29 05:42:35;;;;;;;30.02;17.23;;;;;;;;;;4947932;28;20051;-62
2021/10/29 05:45:00;;;;;;;33.38;16.33;;;;;;;;;;4940432;28;20027;-64
2021/10/29 05:47:26;;;;;;;43.90;19.88;;;;;;;;;;4938273;28;20063;-62
2021/10/29 05:49:51;;;;;;;40.90;21.20;;;;;;;;;;4940954;28;20387;-62
2021/10/29 05:52:21;;;;;;;53.95;23.67;;;;;;;;;;4945607;28;20046;-62
2021/10/29 05:57:21;;;;;;;43.80;22.27;;;;;;;;;;4941107;28;20145;-64
2021/10/29 05:59:46;;;;;;;33.85;18.45;;;;;;;;;;4948888;28;20042;-62
2021/10/29 06:02:11;;;;;;;30.25;17.42;;;;;;;;;;4943910;28;20048;-62
2021/10/29 06:04:36;;;;;;;29.65;16.63;;;;;;;;;;4946173;28;20027;-65
2021/10/29 06:07:02;;;;;;;34.38;18.30;;;;;;;;;;4948579;28;20039;-62
2021/10/29 06:09:27;;;;;;;32.67;18.65;;;;;;;;;;4948112;28;20035;-62
2021/10/29 06:11:52;;;;;;;29.67;17.23;;;;;;;;;;4948539;28;20569;-63
2021/10/29 06:14:18;;;;;;;30.42;17.20;;;;;;;;;;4948175;28;20122;-62
2021/10/29 06:16:43;;;;;;;31.73;18.00;;;;;;;;;;4947911;28;20071;-62
2021/10/29 06:19:08;;;;;;;31.08;18.27;;;;;;;;;;4940477;29;20110;-63
2021/10/29 06:21:54;;;;;;;30.95;17.25;;;;;;;;;;4941566;28;20039;-63
2021/10/29 06:24:19;;;;;;;31.17;17.35;;;;;;;;;;4947769;28;20620;-63
2021/10/29 06:26:53;;;;;;;31.95;18.23;;;;;;;;;;4953973;28;20183;-63
2021/10/29 06:29:18;;;;;;;31.83;16.90;;;;;;;;;;4938520;29;20027;-63
2021/10/29 06:31:43;;;;;;;43.13;20.35;;;;;;;;;;4947936;28;20046;-63
2021/10/29 06:34:10;;;;;;;37.40;19.92;;;;;;;;;;4945442;29;20038;-64
2021/10/29 06:36:35;;;;;;;56.92;26.30;;;;;;;;;;4941509;28;20039;-64
2021/10/29 06:39:01;;;;;;;42.15;20.70;;;;;;;;;;4947746;28;20023;-65
2021/10/29 06:41:27;;;;;;;34.20;18.05;;;;;;;;;;4948062;28;20043;-64
2021/10/29 06:46:39;;;;;;;41.35;20.23;;;;;;;;;;4938973;28;20048;-63
2021/10/29 07:40:04;;;;;;;22.23;13.43;;;;;;;;;;4947437;28;20034;-63
2021/10/29 07:42:52;;;;;;;25.30;14.13;;;;;;;;;;4947253;28;20557;-64
2021/10/29 07:45:18;;;;;;;29.73;15.48;;;;;;;;;;4949953;28;20496;-64
2021/10/29 07:47:43;;;;;;;23.50;14.23;;;;;;;;;;4950808;28;20102;-65
2021/10/29 07:50:09;;;;;;;22.42;13.48;;;;;;;;;;4946997;28;20035;-65
2021/10/29 07:52:36;;;;;;;24.70;14.18;;;;;;;;;;4951108;28;20231;-65
2021/10/29 07:55:01;;;;;;;22.25;13.45;;;;;;;;;;4948909;28;20028;-65
2021/10/29 07:57:26;;;;;;;23.13;14.48;;;;;;;;;;4950780;28;20023;-64
2021/10/29 07:59:52;;;;;;;23.40;12.98;;;;;;;;;;4950372;28;20077;-64
2021/10/29 08:02:17;;;;;;;21.80;13.27;;;;;;;;;;4949051;28;20046;-63
2021/10/29 08:04:43;;;;;;;21.48;12.65;;;;;;;;;;4948571;28;20109;-64
2021/10/29 08:07:08;;;;;;;25.98;13.90;;;;;;;;;;4949451;28;20039;-63
2021/10/29 08:09:33;;;;;;;25.35;14.00;;;;;;;;;;4947269;29;20023;-63
2021/10/29 08:11:59;;;;;;;20.30;13.70;;;;;;;;;;4949735;28;20054;-63
2021/10/29 08:14:24;;;;;;;22.23;13.43;;;;;;;;;;4949418;28;20126;-63
2021/10/29 08:16:49;;;;;;;23.63;13.95;;;;;;;;;;4946912;28;20047;-63
2021/10/29 08:19:19;;;;;;;29.10;16.52;;;;;;;;;;4948720;28;20417;-63
2021/10/29 08:21:44;;;;;;;25.20;17.33;;;;;;;;;;4947617;28;20168;-63
2021/10/29 08:24:10;;;;;;;29.63;17.15;;;;;;;;;;4949967;28;20050;-64
2021/10/29 08:26:36;;;;;;;26.75;15.20;;;;;;;;;;4948996;28;20045;-64
2021/10/29 08:29:01;;;;;;;27.80;21.42;;;;;;;;;;4966741;28;20396;-64
2021/10/29 08:31:26;;;;;;;22.55;16.02;;;;;;;;;;4946109;28;20550;-64
2021/10/29 08:33:51;;;;;;;21.08;13.40;;;;;;;;;;4949885;28;20385;-64
2021/10/29 08:36:19;;;;;;;19.20;13.02;;;;;;;;;;4938314;28;20068;-64
2021/10/29 08:38:44;;;;;;;24.70;14.88;;;;;;;;;;4940908;28;20023;-64
2021/10/29 08:41:09;;;;;;;24.60;14.98;;;;;;;;;;4949625;28;20035;-64
2021/10/29 08:43:35;;;;;;;22.08;14.00;;;;;;;;;;4944856;28;20031;-65
2021/10/29 08:46:00;;;;;;;21.00;13.57;;;;;;;;;;4950117;28;20046;-65
2021/10/29 08:48:26;;;;;;;21.13;13.60;;;;;;;;;;4941075;28;20026;-65
2021/10/29 08:50:52;;;;;;;25.70;13.25;;;;;;;;;;4945580;28;20115;-65
2021/10/29 08:53:17;;;;;;;24.27;13.68;;;;;;;;;;4948422;28;20026;-65
2021/10/29 08:55:42;;;;;;;21.02;13.02;;;;;;;;;;4948167;28;20474;-65
2021/10/29 08:58:09;;;;;;;23.23;14.40;;;;;;;;;;4948340;28;20682;-65
2021/10/29 09:00:36;;;;;;;26.98;13.85;;;;;;;;;;4942045;28;20032;-65
2021/10/29 09:03:09;;;;;;;32.05;14.80;;;;;;;;;;4946318;28;20058;-65
2021/10/29 09:05:56;;;;;;;36.38;13.38;;;;;;;;;;4947046;28;20060;-66
2021/10/29 09:08:36;;;;;;;32.38;13.73;;;;;;;;;;4947080;28;20058;-65
2021/10/29 09:11:23;;;;;;;23.30;13.50;;;;;;;;;;4947643;28;20054;-65
2021/10/29 09:17:05;;;;;;;25.85;14.80;;;;;;;;;;4946278;28;20102;-64
2021/10/29 09:31:26;;;;;;;34.67;13.73;;;;;;;;;;4946875;28;20510;-65
2021/10/29 09:34:04;;;;;;;36.60;14.48;;;;;;;;;;4941445;29;20031;-65
2021/10/29 09:36:37;;;;;;;38.65;13.88;;;;;;;;;;4949159;28;20498;-65
2021/10/29 09:39:09;;;;;;;41.17;15.07;;;;;;;;;;4948649;28;20042;-66
2021/10/29 09:41:35;;;;;;;41.40;14.88;;;;;;;;;;4945188;28;20039;-65
2021/10/29 09:44:01;;;;;;;37.20;15.20;;;;;;;;;;4947883;28;20474;-65
2021/10/29 09:46:46;;;;;;;44.50;16.58;;;;;;;;;;4940665;28;20044;-65
2021/10/29 09:49:18;;;;;;;44.33;16.95;;;;;;;;;;4948379;28;20027;-65
2021/10/29 09:51:51;;;;;;;53.08;15.77;;;;;;;;;;4948227;28;20043;-65
2021/10/29 09:54:20;;;;;;;47.20;16.70;;;;;;;;;;4944571;28;20030;-65
2021/10/29 09:56:53;;;;;;;51.58;16.38;;;;;;;;;;4943603;28;20533;-65
2021/10/29 09:59:18;;;;;;;45.47;16.73;;;;;;;;;;4935354;29;20027;-65
2021/10/29 10:01:43;;;;;;;44.70;16.58;;;;;;;;;;4946857;28;21453;-65
2021/10/29 10:04:09;;;;;;;48.10;17.15;;;;;;;;;;4946427;29;20066;-65
2021/10/29 10:06:37;;;;;;;41.47;17.88;;;;;;;;;;4940712;28;20386;-65
2021/10/29 10:09:04;;;;;;;45.85;17.42;;;;;;;;;;4943074;28;20032;-65
2021/10/29 10:11:30;;;;;;;45.33;16.98;;;;;;;;;;4944021;28;20044;-65
2021/10/29 10:13:55;;;;;;;49.08;18.13;;;;;;;;;;4947023;29;20043;-65
2021/10/29 10:16:21;;;;;;;49.97;17.85;;;;;;;;;;4948904;28;20043;-65
2021/10/29 10:18:46;;;;;;;35.72;15.23;;;;;;;;;;4946325;28;20027;-65
2021/10/29 10:21:13;;;;;;;36.58;18.23;;;;;;;;;;4942827;28;20119;-64
2021/10/29 10:23:40;;;;;;;48.92;16.73;;;;;;;;;;4946538;29;20603;-65
2021/10/29 10:28:50;;;;;;;36.92;16.88;;;;;;;;;;4943469;29;20137;-64
2021/10/29 10:45:47;;;;;;;28.88;14.15;;;;;;;;;;4944429;28;20039;-65
2021/10/29 10:48:13;;;;;;;21.88;11.73;;;;;;;;;;4933534;28;20031;-66
2021/10/29 10:50:46;;;;;;;29.17;13.50;;;;;;;;;;4939570;28;20053;-66
2021/10/29 10:53:16;;;;;;;19.50;9.40;;;;;;;;;;4945402;28;20031;-64
2021/10/29 10:55:51;;;;;;;9.73;6.53;;;;;;;;;;4934920;28;20468;-64
2021/10/29 10:58:28;;;;;;;12.15;6.20;;;;;;;;;;4941353;29;20034;-64
2021/10/29 11:01:03;;;;;;;10.32;5.80;;;;;;;;;;4940919;28;20047;-65
2021/10/29 11:03:51;;;;;;;10.52;6.18;;;;;;;;;;4939190;29;20016;-65
2021/10/29 11:06:40;;;;;;;10.00;5.25;;;;;;;;;;4943923;28;20093;-66
2021/10/29 11:11:55;;;;;;;9.38;5.15;;;;;;;;;;4943204;28;20086;-66
2021/10/29 11:14:31;;;;;;;12.75;5.68;;;;;;;;;;4940265;28;20968;-64
2021/10/29 11:16:57;;;;;;;9.88;4.80;;;;;;;;;;4937808;28;20035;-66
2021/10/29 11:19:32;;;;;;;8.27;5.13;;;;;;;;;;4940557;28;20367;-66
2021/10/29 11:21:57;;;;;;;9.75;4.78;;;;;;;;;;4946555;28;20215;-64
2021/10/29 11:24:27;;;;;;;7.47;4.60;;;;;;;;;;4946473;28;20041;-65
2021/10/29 11:26:52;;;;;;;11.90;5.20;;;;;;;;;;4945789;28;20502;-68
2021/10/29 11:29:18;;;;;;;10.05;4.70;;;;;;;;;;4944810;28;20031;-65
2021/10/29 11:31:44;;;;;;;9.05;5.22;;;;;;;;;;4944760;28;20532;-66
2021/10/29 11:34:13;;;;;;;9.40;4.22;;;;;;;;;;4946765;28;20059;-66
2021/10/29 11:36:39;;;;;;;7.80;4.45;;;;;;;;;;4944751;28;20039;-65
2021/10/29 11:39:05;;;;;;;8.30;4.45;;;;;;;;;;4942141;28;20160;-65
2021/10/29 11:41:32;;;;;;;8.57;4.80;;;;;;;;;;4945393;28;20042;-65
2021/10/29 11:43:59;;;;;;;7.28;4.50;;;;;;;;;;4945140;28;20059;-66
2021/10/29 11:46:25;;;;;;;12.43;4.68;;;;;;;;;;4946487;28;20450;-65
2021/10/29 11:48:50;;;;;;;8.98;4.95;;;;;;;;;;4945745;28;20109;-65
2021/10/29 11:51:16;;;;;;;9.13;4.65;;;;;;;;;;4946544;28;20070;-65
2021/10/29 11:53:47;;;;;;;8.02;4.70;;;;;;;;;;4944209;29;20027;-66
2021/10/29 12:07:29;;;;;;;6.15;4.32;;;;;;;;;;4942513;28;20098;-66
2021/10/29 12:10:05;;;;;;;7.30;4.38;;;;;;;;;;4946129;28;20039;-66
2021/10/29 12:12:35;;;;;;;9.77;4.63;;;;;;;;;;4944541;28;20036;-66
2021/10/29 12:15:14;;;;;;;7.23;4.60;;;;;;;;;;4946021;28;20060;-66
2021/10/29 12:17:54;;;;;;;8.65;4.60;;;;;;;;;;4945305;29;20382;-65
2021/10/29 12:20:24;;;;;;;12.35;4.78;;;;;;;;;;4944320;28;20075;-66
2021/10/29 12:22:53;;;;;;;8.82;4.55;;;;;;;;;;4943132;29;20608;-64
2021/10/29 12:25:40;;;;;;;7.67;3.60;;;;;;;;;;4943686;28;20046;-64
2021/10/29 12:28:08;;;;;;;9.27;4.43;;;;;;;;;;4949630;29;20461;-64
2021/10/29 12:30:38;;;;;;;5.38;3.40;;;;;;;;;;4948802;28;20050;-65
2021/10/29 13:01:26;;;;;;;;;;;;;;;;;;4949199;28;20054;-66
2021/10/29 13:03:09;;;;;;;6.60;4.22;;;;;;;;;;4946784;28;19915;-65
2021/10/29 13:05:38;;;;;;;9.85;4.50;;;;;;;;;;4948392;28;20425;-66
2021/10/29 13:08:17;;;;;;;7.57;4.55;;;;;;;;;;4948718;28;20444;-65
2021/10/29 13:10:42;;;;;;;6.70;4.18;;;;;;;;;;4947526;28;20058;-65
2021/10/29 13:13:21;;;;;;;7.70;4.47;;;;;;;;;;4944730;29;20023;-66
2021/10/29 13:15:47;;;;;;;6.88;4.82;;;;;;;;;;4947257;28;20510;-65
2021/10/29 13:18:17;;;;;;;7.70;4.70;;;;;;;;;;4948093;28;20026;-65
2021/10/29 13:21:31;;;;;;;;;;;;;;;;;;4947500;28;20047;-65
2021/10/29 13:28:47;;;;;;;7.95;4.72;;;;;;;;;;4935072;29;20034;-65
2021/10/29 14:03:13;;;;;;;9.02;5.70;;;;;;;;;;4945150;28;20118;-66
2021/10/29 14:30:23;;;;;;;11.82;5.82;;;;;;;;;;4948445;28;20082;-65
2021/10/29 14:32:53;;;;;;;13.43;5.80;;;;;;;;;;4942141;28;20098;-65
2021/10/29 14:35:24;;;;;;;8.93;5.38;;;;;;;;;;4944709;28;20046;-65
2021/10/29 14:38:18;;;;;;;9.98;5.80;;;;;;;;;;4933272;28;20026;-65
2021/10/29 14:43:19;;;;;;;10.57;5.80;;;;;;;;;;4943918;28;20039;-65
2021/10/29 15:06:58;;;;;;;;;;;;;;;;;;4935574;28;20045;-64
2021/10/29 15:30:29;;;;;;;8.88;5.40;;;;;;;;;;4947364;28;20039;-65
2021/10/29 15:46:46;;;;;;;10.32;5.60;;;;;;;;;;4946531;28;20032;-65
2021/10/29 15:51:41;;;;;;;10.05;5.50;;;;;;;;;;4945731;28;20062;-65
2021/10/29 15:54:09;;;;;;;9.73;5.45;;;;;;;;;;4942854;29;20022;-64
2021/10/29 15:59:22;;;;;;;10.23;5.50;;;;;;;;;;4947409;28;20382;-65
2021/10/29 16:18:10;;;;;;;12.95;6.80;;;;;;;;;;4944550;28;20046;-65
2021/10/29 16:20:35;;;;;;;11.48;6.50;;;;;;;;;;4948979;28;20043;-64
2021/10/29 16:23:02;;;;;;;9.95;6.55;;;;;;;;;;4940926;28;20355;-65
2021/10/29 16:25:33;;;;;;;11.13;5.97;;;;;;;;;;4939453;28;20035;-64
2021/10/29 16:28:01;;;;;;;13.43;6.38;;;;;;;;;;4946607;28;20058;-64
2021/10/29 16:30:28;;;;;;;10.40;5.97;;;;;;;;;;4945879;28;20394;-64
2021/10/29 16:33:36;;;;;;;12.85;6.82;;;;;;;;;;4949739;28;20102;-64
2021/10/29 16:35:42;;;;;;;13.73;6.35;;;;;;;;;;4949825;28;20039;-64
2021/10/29 16:38:07;;;;;;;10.73;6.30;;;;;;;;;;4951117;28;20106;-64
2021/10/29 16:40:33;;;;;;;11.60;6.28;;;;;;;;;;4946192;28;20129;-64
2021/10/29 16:42:58;;;;;;;9.02;5.88;;;;;;;;;;4947866;28;20776;-64
2021/10/29 16:45:24;;;;;;;10.82;7.05;;;;;;;;;;4948088;28;20884;-64
2021/10/29 16:47:49;;;;;;;9.20;6.03;;;;;;;;;;4946334;28;20019;-64
2021/10/29 16:50:15;;;;;;;11.35;6.38;;;;;;;;;;4942862;28;20041;-64
2021/10/29 16:52:40;;;;;;;11.82;5.90;;;;;;;;;;4947288;28;20027;-64
2021/10/29 16:55:06;;;;;;;9.73;6.03;;;;;;;;;;4943208;28;20031;-64
2021/10/29 16:57:31;;;;;;;11.75;7.30;;;;;;;;;;4939595;28;20023;-65
2021/10/29 16:59:56;;;;;;;17.55;6.60;;;;;;;;;;4945355;28;20545;-64
2021/10/29 17:02:22;;;;;;;13.90;7.32;;;;;;;;;;4938910;28;20454;-65
2021/10/29 17:04:47;;;;;;;12.45;7.60;;;;;;;;;;4945729;29;20023;-64
2021/10/29 17:07:12;;;;;;;20.38;13.02;;;;;;;;;;4942170;28;20024;-64
2021/10/29 17:09:38;;;;;;;9.73;6.70;;;;;;;;;;4947427;28;20033;-64
2021/10/29 17:12:04;;;;;;;15.15;6.53;;;;;;;;;;4946419;28;20139;-64
2021/10/29 17:14:31;;;;;;;11.65;6.80;;;;;;;;;;4943835;28;20142;-64
2021/10/29 17:16:56;;;;;;;12.40;7.65;;;;;;;;;;4946096;28;20046;-64
2021/10/29 17:19:21;;;;;;;14.38;7.68;;;;;;;;;;4947003;28;20401;-64
2021/10/29 17:21:47;;;;;;;12.00;7.68;;;;;;;;;;4944681;28;20066;-64
2021/10/29 17:24:12;;;;;;;30.50;18.60;;;;;;;;;;4945601;28;20186;-64
2021/10/29 17:26:38;;;;;;;25.63;15.90;;;;;;;;;;4945882;28;20444;-64
2021/10/29 17:29:03;;;;;;;22.38;12.20;;;;;;;;;;4945465;28;20023;-64
2021/10/29 17:31:28;;;;;;;19.02;10.88;;;;;;;;;;4942882;28;20261;-64
2021/10/29 17:33:54;;;;;;;18.48;10.60;;;;;;;;;;4945803;29;20027;-64
2021/10/29 17:36:20;;;;;;;31.10;18.88;;;;;;;;;;4947005;28;20456;-64
2021/10/29 17:38:46;;;;;;;14.73;7.57;;;;;;;;;;4947045;28;20062;-64
2021/10/29 17:41:11;;;;;;;16.52;8.25;;;;;;;;;;4945703;28;20070;-64
2021/10/29 17:43:36;;;;;;;14.68;8.85;;;;;;;;;;4940018;29;20470;-64
2021/10/29 17:46:02;;;;;;;13.73;9.00;;;;;;;;;;4937207;28;20046;-64
2021/10/29 17:48:27;;;;;;;12.85;7.80;;;;;;;;;;4940716;29;20030;-68
2021/10/29 17:50:52;;;;;;;14.02;8.48;;;;;;;;;;4946692;28;20804;-65
2021/10/29 17:53:18;;;;;;;13.98;6.85;;;;;;;;;;4947082;28;20441;-64
2021/10/29 17:55:43;;;;;;;12.48;7.32;;;;;;;;;;4943874;28;20043;-64
2021/10/29 17:58:09;;;;;;;19.30;9.55;;;;;;;;;;4946011;28;20031;-64
2021/10/29 18:00:34;;;;;;;14.95;10.13;;;;;;;;;;4944790;28;20133;-64
2021/10/29 18:02:59;;;;;;;17.05;11.00;;;;;;;;;;4945700;28;20027;-64
2021/10/29 18:05:26;;;;;;;18.55;9.35;;;;;;;;;;4944619;28;20062;-64
2021/10/29 18:07:57;;;;;;;15.90;8.20;;;;;;;;;;4941761;29;20031;-65
2021/10/29 18:10:22;;;;;;;14.77;8.35;;;;;;;;;;4941336;28;20126;-64
2021/10/29 18:12:47;;;;;;;15.05;9.40;;;;;;;;;;4946277;28;20114;-64
2021/10/29 18:15:13;;;;;;;14.25;8.95;;;;;;;;;;4941821;28;20039;-63
2021/10/29 18:17:39;;;;;;;12.77;7.07;;;;;;;;;;4943795;28;20034;-64
2021/10/29 18:20:04;;;;;;;12.10;7.75;;;;;;;;;;4947370;28;20038;-64
2021/10/29 18:22:29;;;;;;;16.13;9.13;;;;;;;;;;4947582;28;20118;-63
2021/10/29 18:24:55;;;;;;;16.42;9.48;;;;;;;;;;4948189;28;20062;-64
2021/10/29 18:27:23;;;;;;;15.10;8.00;;;;;;;;;;4943960;28;20070;-64
2021/10/29 18:29:52;;;;;;;28.30;14.35;;;;;;;;;;4948810;28;20043;-63
2021/10/29 18:32:17;;;;;;;17.80;10.00;;;;;;;;;;4946612;28;20036;-64
2021/10/29 18:34:47;;;;;;;16.67;8.70;;;;;;;;;;4947960;28;20362;-63
2021/10/29 18:37:13;;;;;;;18.90;11.10;;;;;;;;;;4952370;28;20138;-64
2021/10/29 18:39:39;;;;;;;23.65;13.35;;;;;;;;;;4943726;28;20110;-63
2021/10/29 18:42:05;;;;;;;22.77;12.23;;;;;;;;;;4942423;28;20043;-64
2021/10/29 18:44:30;;;;;;;20.92;11.52;;;;;;;;;;4938808;28;20019;-64
2021/10/29 18:46:55;;;;;;;17.40;10.85;;;;;;;;;;4949618;28;20134;-64
2021/10/29 18:49:21;;;;;;;16.88;10.63;;;;;;;;;;4943775;28;20623;-64
2021/10/29 18:51:48;;;;;;;20.52;11.57;;;;;;;;;;4944916;28;20046;-64
2021/10/29 18:54:13;;;;;;;17.65;10.32;;;;;;;;;;4948496;28;20472;-64
2021/10/29 18:56:39;;;;;;;17.58;9.05;;;;;;;;;;4944537;28;20047;-64
2021/10/29 18:59:04;;;;;;;16.45;9.60;;;;;;;;;;4942148;28;20023;-64
2021/10/29 19:01:30;;;;;;;14.95;8.48;;;;;;;;;;4936481;28;20043;-64
2021/10/29 19:03:55;;;;;;;15.40;8.82;;;;;;;;;;4945806;28;20385;-64